sensor_id;sensor_type;location;lat;lon;timestamp;P1;durP1;ratioP1;P2;durP2;ratioP2
84048;SDS011;74136;51.684;7.862;2024-03-02T00:01:11;5.72;;;2.75;;
84048;SDS011;74136;51.684;7.862;2024-03-02T00:03:37;5.18;;;2.83;;
84048;SDS011;74136;51.684;7.862;2024-03-02T00:06:04;8.07;;;3.40;;
84048;SDS011;74136;51.684;7.862;2024-03-02T00:08:30;6.78;;;2.63;;
84048;SDS011;74136;51.684;7.862;2024-03-02T00:10:57;6.85;;;3.30;;
84048;SDS011;74136;51.684;7.862;2024-03-02T00:13:24;5.82;;;3.00;;
84048;SDS011;74136;51.684;7.862;2024-03-02T00:18:24;6.30;;;3.45;;
84048;SDS011;74136;51.684;7.862;2024-03-02T00:20:56;7.40;;;3.55;;
84048;SDS011;74136;51.684;7.862;2024-03-02T00:23:23;9.80;;;3.97;;
84048;SDS011;74136;51.684;7.862;2024-03-02T00:25:53;9.32;;;3.63;;
84048;SDS011;74136;51.684;7.862;2024-03-02T00:33:31;9.93;;;4.25;;
84048;SDS011;74136;51.684;7.862;2024-03-02T00:35:57;9.55;;;4.22;;
84048;SDS011;74136;51.684;7.862;2024-03-02T00:38:26;9.65;;;4.32;;
84048;SDS011;74136;51.684;7.862;2024-03-02T00:40:53;8.27;;;3.88;;
84048;SDS011;74136;51.684;7.862;2024-03-02T00:46:12;8.63;;;3.70;;
84048;SDS011;74136;51.684;7.862;2024-03-02T00:48:57;6.72;;;3.75;;
84048;SDS011;74136;51.684;7.862;2024-03-02T00:51:25;9.18;;;4.53;;
84048;SDS011;74136;51.684;7.862;2024-03-02T00:53:53;10.07;;;4.65;;
84048;SDS011;74136;51.684;7.862;2024-03-02T00:56:23;11.88;;;4.63;;
84048;SDS011;74136;51.684;7.862;2024-03-02T00:58:50;9.18;;;4.03;;
84048;SDS011;74136;51.684;7.862;2024-03-02T01:03:15;10.40;;;4.78;;
84048;SDS011;74136;51.684;7.862;2024-03-02T01:05:42;9.88;;;4.95;;
84048;SDS011;74136;51.684;7.862;2024-03-02T01:08:09;9.40;;;4.45;;
84048;SDS011;74136;51.684;7.862;2024-03-02T01:10:36;10.20;;;4.72;;
84048;SDS011;74136;51.684;7.862;2024-03-02T01:13:02;9.75;;;4.97;;
84048;SDS011;74136;51.684;7.862;2024-03-02T01:15:29;9.93;;;4.78;;
84048;SDS011;74136;51.684;7.862;2024-03-02T01:17:55;8.98;;;4.60;;
84048;SDS011;74136;51.684;7.862;2024-03-02T01:20:21;9.70;;;4.35;;
84048;SDS011;74136;51.684;7.862;2024-03-02T01:22:48;9.23;;;4.47;;
84048;SDS011;74136;51.684;7.862;2024-03-02T01:25:14;11.10;;;5.00;;
84048;SDS011;74136;51.684;7.862;2024-03-02T01:27:40;11.70;;;4.70;;
84048;SDS011;74136;51.684;7.862;2024-03-02T01:30:07;10.65;;;4.70;;
84048;SDS011;74136;51.684;7.862;2024-03-02T01:32:34;9.07;;;4.55;;
84048;SDS011;74136;51.684;7.862;2024-03-02T01:35:00;9.07;;;4.55;;
84048;SDS011;74136;51.684;7.862;2024-03-02T01:37:26;9.43;;;4.85;;
84048;SDS011;74136;51.684;7.862;2024-03-02T01:39:52;8.65;;;4.22;;
84048;SDS011;74136;51.684;7.862;2024-03-02T01:42:18;9.25;;;4.75;;
84048;SDS011;74136;51.684;7.862;2024-03-02T01:44:45;7.18;;;3.95;;
84048;SDS011;74136;51.684;7.862;2024-03-02T01:47:11;8.88;;;4.22;;
84048;SDS011;74136;51.684;7.862;2024-03-02T01:49:37;15.35;;;4.35;;
84048;SDS011;74136;51.684;7.862;2024-03-02T01:52:04;8.43;;;4.20;;
84048;SDS011;74136;51.684;7.862;2024-03-02T01:54:34;8.02;;;4.10;;
84048;SDS011;74136;51.684;7.862;2024-03-02T01:57:00;8.82;;;4.38;;
84048;SDS011;74136;51.684;7.862;2024-03-02T01:59:26;8.77;;;3.70;;
84048;SDS011;74136;51.684;7.862;2024-03-02T02:01:53;8.32;;;4.15;;
84048;SDS011;74136;51.684;7.862;2024-03-02T02:04:19;6.88;;;3.85;;
84048;SDS011;74136;51.684;7.862;2024-03-02T02:06:48;7.45;;;3.97;;
84048;SDS011;74136;51.684;7.862;2024-03-02T02:09:15;10.63;;;4.20;;
84048;SDS011;74136;51.684;7.862;2024-03-02T02:11:41;9.05;;;4.43;;
84048;SDS011;74136;51.684;7.862;2024-03-02T02:14:07;8.15;;;3.70;;
84048;SDS011;74136;51.684;7.862;2024-03-02T02:16:33;8.93;;;4.00;;
84048;SDS011;74136;51.684;7.862;2024-03-02T02:18:59;9.40;;;4.10;;
84048;SDS011;74136;51.684;7.862;2024-03-02T02:21:26;8.32;;;4.10;;
84048;SDS011;74136;51.684;7.862;2024-03-02T02:23:53;6.82;;;3.70;;
84048;SDS011;74136;51.684;7.862;2024-03-02T02:26:19;8.38;;;3.85;;
84048;SDS011;74136;51.684;7.862;2024-03-02T02:28:45;7.57;;;3.92;;
84048;SDS011;74136;51.684;7.862;2024-03-02T02:31:14;18.52;;;5.32;;
84048;SDS011;74136;51.684;7.862;2024-03-02T02:33:40;9.32;;;4.05;;
84048;SDS011;74136;51.684;7.862;2024-03-02T02:36:07;7.53;;;3.83;;
84048;SDS011;74136;51.684;7.862;2024-03-02T02:38:34;11.45;;;4.35;;
84048;SDS011;74136;51.684;7.862;2024-03-02T02:41:04;9.15;;;4.45;;
84048;SDS011;74136;51.684;7.862;2024-03-02T02:43:30;9.15;;;4.18;;
84048;SDS011;74136;51.684;7.862;2024-03-02T02:45:56;7.40;;;3.80;;
84048;SDS011;74136;51.684;7.862;2024-03-02T02:48:22;9.15;;;4.22;;
84048;SDS011;74136;51.684;7.862;2024-03-02T02:50:48;8.70;;;4.63;;
84048;SDS011;74136;51.684;7.862;2024-03-02T02:53:15;8.77;;;4.38;;
84048;SDS011;74136;51.684;7.862;2024-03-02T02:55:41;9.48;;;4.50;;
84048;SDS011;74136;51.684;7.862;2024-03-02T02:58:09;11.40;;;4.40;;
84048;SDS011;74136;51.684;7.862;2024-03-02T03:00:35;9.07;;;4.00;;
84048;SDS011;74136;51.684;7.862;2024-03-02T03:03:02;9.65;;;4.22;;
84048;SDS011;74136;51.684;7.862;2024-03-02T03:05:28;12.25;;;4.65;;
84048;SDS011;74136;51.684;7.862;2024-03-02T03:07:54;7.60;;;3.97;;
84048;SDS011;74136;51.684;7.862;2024-03-02T03:10:21;11.25;;;3.80;;
84048;SDS011;74136;51.684;7.862;2024-03-02T03:12:49;10.35;;;4.63;;
84048;SDS011;74136;51.684;7.862;2024-03-02T03:15:15;9.77;;;4.55;;
84048;SDS011;74136;51.684;7.862;2024-03-02T03:17:42;8.10;;;4.15;;
84048;SDS011;74136;51.684;7.862;2024-03-02T03:20:08;8.32;;;4.53;;
84048;SDS011;74136;51.684;7.862;2024-03-02T03:22:38;8.48;;;4.07;;
84048;SDS011;74136;51.684;7.862;2024-03-02T03:25:05;8.57;;;4.13;;
84048;SDS011;74136;51.684;7.862;2024-03-02T03:27:31;9.63;;;4.82;;
84048;SDS011;74136;51.684;7.862;2024-03-02T03:29:58;10.40;;;4.55;;
84048;SDS011;74136;51.684;7.862;2024-03-02T03:32:24;9.55;;;4.25;;
84048;SDS011;74136;51.684;7.862;2024-03-02T03:34:50;8.63;;;4.50;;
84048;SDS011;74136;51.684;7.862;2024-03-02T03:37:17;9.02;;;4.43;;
84048;SDS011;74136;51.684;7.862;2024-03-02T03:39:43;9.68;;;4.63;;
84048;SDS011;74136;51.684;7.862;2024-03-02T03:42:09;8.52;;;4.50;;
84048;SDS011;74136;51.684;7.862;2024-03-02T03:44:35;7.88;;;4.03;;
84048;SDS011;74136;51.684;7.862;2024-03-02T03:47:01;8.15;;;4.07;;
84048;SDS011;74136;51.684;7.862;2024-03-02T03:49:28;7.43;;;3.65;;
84048;SDS011;74136;51.684;7.862;2024-03-02T03:51:54;10.15;;;4.25;;
84048;SDS011;74136;51.684;7.862;2024-03-02T03:54:21;7.78;;;3.90;;
84048;SDS011;74136;51.684;7.862;2024-03-02T03:56:47;8.88;;;4.13;;
84048;SDS011;74136;51.684;7.862;2024-03-02T03:59:13;10.43;;;4.38;;
84048;SDS011;74136;51.684;7.862;2024-03-02T04:01:39;8.80;;;3.78;;
84048;SDS011;74136;51.684;7.862;2024-03-02T04:04:05;8.73;;;4.32;;
84048;SDS011;74136;51.684;7.862;2024-03-02T04:06:32;9.55;;;4.40;;
84048;SDS011;74136;51.684;7.862;2024-03-02T04:08:59;8.93;;;4.70;;
84048;SDS011;74136;51.684;7.862;2024-03-02T04:11:25;8.15;;;4.18;;
84048;SDS011;74136;51.684;7.862;2024-03-02T04:13:51;10.43;;;4.72;;
84048;SDS011;74136;51.684;7.862;2024-03-02T04:16:17;9.18;;;4.60;;
84048;SDS011;74136;51.684;7.862;2024-03-02T04:18:43;9.63;;;4.40;;
84048;SDS011;74136;51.684;7.862;2024-03-02T04:21:10;10.52;;;4.63;;
84048;SDS011;74136;51.684;7.862;2024-03-02T04:23:36;10.85;;;5.18;;
84048;SDS011;74136;51.684;7.862;2024-03-02T04:26:02;10.10;;;4.75;;
84048;SDS011;74136;51.684;7.862;2024-03-02T04:28:28;10.70;;;4.93;;
84048;SDS011;74136;51.684;7.862;2024-03-02T04:30:54;11.50;;;4.70;;
84048;SDS011;74136;51.684;7.862;2024-03-02T04:33:21;10.13;;;5.05;;
84048;SDS011;74136;51.684;7.862;2024-03-02T04:35:47;12.82;;;5.07;;
84048;SDS011;74136;51.684;7.862;2024-03-02T04:38:13;10.13;;;5.68;;
84048;SDS011;74136;51.684;7.862;2024-03-02T04:40:39;13.00;;;5.07;;
84048;SDS011;74136;51.684;7.862;2024-03-02T04:43:05;10.65;;;4.93;;
84048;SDS011;74136;51.684;7.862;2024-03-02T04:45:32;10.93;;;4.63;;
84048;SDS011;74136;51.684;7.862;2024-03-02T04:47:58;9.82;;;4.82;;
84048;SDS011;74136;51.684;7.862;2024-03-02T04:50:24;13.15;;;5.20;;
84048;SDS011;74136;51.684;7.862;2024-03-02T04:52:50;10.80;;;5.22;;
84048;SDS011;74136;51.684;7.862;2024-03-02T04:55:16;9.75;;;4.53;;
84048;SDS011;74136;51.684;7.862;2024-03-02T04:57:55;12.77;;;6.00;;
84048;SDS011;74136;51.684;7.862;2024-03-02T05:02:47;13.30;;;5.77;;
84048;SDS011;74136;51.684;7.862;2024-03-02T05:05:13;13.68;;;5.88;;
84048;SDS011;74136;51.684;7.862;2024-03-02T05:07:41;11.77;;;5.50;;
84048;SDS011;74136;51.684;7.862;2024-03-02T05:10:10;10.57;;;5.43;;
84048;SDS011;74136;51.684;7.862;2024-03-02T05:12:40;15.02;;;6.18;;
84048;SDS011;74136;51.684;7.862;2024-03-02T05:17:36;14.88;;;6.32;;
84048;SDS011;74136;51.684;7.862;2024-03-02T05:20:06;11.98;;;6.00;;
84048;SDS011;74136;51.684;7.862;2024-03-02T05:22:36;15.35;;;6.13;;
84048;SDS011;74136;51.684;7.862;2024-03-02T05:25:03;15.10;;;6.10;;
84048;SDS011;74136;51.684;7.862;2024-03-02T05:27:30;13.73;;;5.53;;
84048;SDS011;74136;51.684;7.862;2024-03-02T05:29:58;13.63;;;5.97;;
84048;SDS011;74136;51.684;7.862;2024-03-02T05:32:25;13.80;;;5.88;;
84048;SDS011;74136;51.684;7.862;2024-03-02T05:34:51;12.45;;;6.35;;
84048;SDS011;74136;51.684;7.862;2024-03-02T05:37:18;11.15;;;5.60;;
84048;SDS011;74136;51.684;7.862;2024-03-02T05:39:44;12.88;;;4.95;;
84048;SDS011;74136;51.684;7.862;2024-03-02T05:42:10;14.27;;;5.57;;
84048;SDS011;74136;51.684;7.862;2024-03-02T05:44:36;15.70;;;6.20;;
84048;SDS011;74136;51.684;7.862;2024-03-02T05:47:03;13.98;;;5.65;;
84048;SDS011;74136;51.684;7.862;2024-03-02T05:49:29;12.30;;;5.50;;
84048;SDS011;74136;51.684;7.862;2024-03-02T05:51:56;12.43;;;5.47;;
84048;SDS011;74136;51.684;7.862;2024-03-02T05:54:22;12.45;;;5.78;;
84048;SDS011;74136;51.684;7.862;2024-03-02T05:56:48;14.75;;;6.13;;
84048;SDS011;74136;51.684;7.862;2024-03-02T05:59:14;12.40;;;5.95;;
84048;SDS011;74136;51.684;7.862;2024-03-02T06:01:42;14.27;;;6.45;;
84048;SDS011;74136;51.684;7.862;2024-03-02T06:04:09;12.98;;;5.85;;
84048;SDS011;74136;51.684;7.862;2024-03-02T06:06:39;13.27;;;6.00;;
84048;SDS011;74136;51.684;7.862;2024-03-02T06:09:06;14.30;;;6.40;;
84048;SDS011;74136;51.684;7.862;2024-03-02T06:11:39;14.68;;;6.65;;
84048;SDS011;74136;51.684;7.862;2024-03-02T06:14:06;16.00;;;6.57;;
84048;SDS011;74136;51.684;7.862;2024-03-02T06:16:34;15.65;;;6.88;;
84048;SDS011;74136;51.684;7.862;2024-03-02T06:19:00;12.95;;;6.00;;
84048;SDS011;74136;51.684;7.862;2024-03-02T06:21:27;14.93;;;6.47;;
84048;SDS011;74136;51.684;7.862;2024-03-02T06:23:53;13.43;;;6.88;;
84048;SDS011;74136;51.684;7.862;2024-03-02T06:26:20;15.10;;;6.20;;
84048;SDS011;74136;51.684;7.862;2024-03-02T06:28:46;14.50;;;6.60;;
84048;SDS011;74136;51.684;7.862;2024-03-02T06:31:12;11.50;;;5.88;;
84048;SDS011;74136;51.684;7.862;2024-03-02T06:33:38;13.68;;;6.50;;
84048;SDS011;74136;51.684;7.862;2024-03-02T06:36:06;14.57;;;6.00;;
84048;SDS011;74136;51.684;7.862;2024-03-02T06:38:35;11.63;;;5.65;;
84048;SDS011;74136;51.684;7.862;2024-03-02T06:41:01;15.55;;;6.38;;
84048;SDS011;74136;51.684;7.862;2024-03-02T06:43:28;14.75;;;6.32;;
84048;SDS011;74136;51.684;7.862;2024-03-02T06:45:54;14.07;;;5.70;;
84048;SDS011;74136;51.684;7.862;2024-03-02T06:48:20;12.25;;;6.40;;
84048;SDS011;74136;51.684;7.862;2024-03-02T06:50:47;14.68;;;5.90;;
84048;SDS011;74136;51.684;7.862;2024-03-02T06:53:13;13.02;;;5.78;;
84048;SDS011;74136;51.684;7.862;2024-03-02T06:55:40;12.55;;;6.05;;
84048;SDS011;74136;51.684;7.862;2024-03-02T06:58:06;11.88;;;5.55;;
84048;SDS011;74136;51.684;7.862;2024-03-02T07:00:32;14.82;;;6.07;;
84048;SDS011;74136;51.684;7.862;2024-03-02T07:02:58;12.02;;;5.90;;
84048;SDS011;74136;51.684;7.862;2024-03-02T07:05:24;13.68;;;5.57;;
84048;SDS011;74136;51.684;7.862;2024-03-02T07:07:51;12.20;;;5.93;;
84048;SDS011;74136;51.684;7.862;2024-03-02T07:10:17;15.93;;;6.03;;
84048;SDS011;74136;51.684;7.862;2024-03-02T07:12:43;14.25;;;6.55;;
84048;SDS011;74136;51.684;7.862;2024-03-02T07:15:10;13.93;;;6.13;;
84048;SDS011;74136;51.684;7.862;2024-03-02T07:17:47;14.70;;;5.30;;
84048;SDS011;74136;51.684;7.862;2024-03-02T07:20:13;11.95;;;5.45;;
84048;SDS011;74136;51.684;7.862;2024-03-02T07:22:40;11.40;;;5.75;;
84048;SDS011;74136;51.684;7.862;2024-03-02T07:25:06;11.98;;;6.10;;
84048;SDS011;74136;51.684;7.862;2024-03-02T07:27:33;18.15;;;6.65;;
84048;SDS011;74136;51.684;7.862;2024-03-02T07:30:03;12.75;;;6.50;;
84048;SDS011;74136;51.684;7.862;2024-03-02T07:32:30;14.70;;;6.10;;
84048;SDS011;74136;51.684;7.862;2024-03-02T07:34:56;13.52;;;5.88;;
84048;SDS011;74136;51.684;7.862;2024-03-02T07:37:23;13.15;;;5.80;;
84048;SDS011;74136;51.684;7.862;2024-03-02T07:39:50;11.60;;;5.43;;
84048;SDS011;74136;51.684;7.862;2024-03-02T07:42:17;11.85;;;5.82;;
84048;SDS011;74136;51.684;7.862;2024-03-02T07:44:46;11.25;;;5.50;;
84048;SDS011;74136;51.684;7.862;2024-03-02T07:47:12;11.70;;;5.30;;
84048;SDS011;74136;51.684;7.862;2024-03-02T07:49:38;13.95;;;5.47;;
84048;SDS011;74136;51.684;7.862;2024-03-02T07:52:05;10.95;;;5.45;;
84048;SDS011;74136;51.684;7.862;2024-03-02T07:54:31;19.58;;;6.82;;
84048;SDS011;74136;51.684;7.862;2024-03-02T07:56:57;11.23;;;5.15;;
84048;SDS011;74136;51.684;7.862;2024-03-02T07:59:24;13.65;;;6.40;;
84048;SDS011;74136;51.684;7.862;2024-03-02T08:01:50;11.80;;;5.63;;
84048;SDS011;74136;51.684;7.862;2024-03-02T08:04:17;12.05;;;5.57;;
84048;SDS011;74136;51.684;7.862;2024-03-02T08:06:43;11.63;;;5.03;;
84048;SDS011;74136;51.684;7.862;2024-03-02T08:09:11;9.27;;;5.10;;
84048;SDS011;74136;51.684;7.862;2024-03-02T08:11:37;12.30;;;5.15;;
84048;SDS011;74136;51.684;7.862;2024-03-02T08:14:03;11.20;;;5.60;;
84048;SDS011;74136;51.684;7.862;2024-03-02T08:16:29;13.43;;;6.00;;
84048;SDS011;74136;51.684;7.862;2024-03-02T08:18:56;12.50;;;5.22;;
84048;SDS011;74136;51.684;7.862;2024-03-02T08:21:25;11.48;;;5.28;;
84048;SDS011;74136;51.684;7.862;2024-03-02T08:23:51;11.57;;;5.40;;
84048;SDS011;74136;51.684;7.862;2024-03-02T08:26:18;12.38;;;5.47;;
84048;SDS011;74136;51.684;7.862;2024-03-02T08:28:44;10.40;;;5.68;;
84048;SDS011;74136;51.684;7.862;2024-03-02T08:31:10;11.15;;;4.55;;
84048;SDS011;74136;51.684;7.862;2024-03-02T08:33:37;9.00;;;4.80;;
84048;SDS011;74136;51.684;7.862;2024-03-02T08:36:04;10.55;;;5.25;;
84048;SDS011;74136;51.684;7.862;2024-03-02T08:38:31;8.02;;;4.65;;
84048;SDS011;74136;51.684;7.862;2024-03-02T08:40:58;10.70;;;5.15;;
84048;SDS011;74136;51.684;7.862;2024-03-02T08:43:24;9.35;;;4.50;;
84048;SDS011;74136;51.684;7.862;2024-03-02T08:45:50;10.70;;;4.93;;
84048;SDS011;74136;51.684;7.862;2024-03-02T08:48:17;9.65;;;4.43;;
84048;SDS011;74136;51.684;7.862;2024-03-02T08:50:43;8.05;;;4.60;;
84048;SDS011;74136;51.684;7.862;2024-03-02T08:53:09;9.40;;;4.28;;
84048;SDS011;74136;51.684;7.862;2024-03-02T08:55:36;11.13;;;4.10;;
84048;SDS011;74136;51.684;7.862;2024-03-02T08:58:02;7.88;;;4.13;;
84048;SDS011;74136;51.684;7.862;2024-03-02T09:00:29;9.38;;;4.07;;
84048;SDS011;74136;51.684;7.862;2024-03-02T09:02:55;11.10;;;4.53;;
84048;SDS011;74136;51.684;7.862;2024-03-02T09:05:21;10.48;;;4.22;;
84048;SDS011;74136;51.684;7.862;2024-03-02T09:07:47;7.20;;;4.25;;
84048;SDS011;74136;51.684;7.862;2024-03-02T09:10:14;11.70;;;3.85;;
84048;SDS011;74136;51.684;7.862;2024-03-02T09:12:40;9.15;;;3.97;;
84048;SDS011;74136;51.684;7.862;2024-03-02T09:15:07;12.35;;;4.72;;
84048;SDS011;74136;51.684;7.862;2024-03-02T09:17:33;9.00;;;4.15;;
84048;SDS011;74136;51.684;7.862;2024-03-02T09:20:00;9.75;;;4.07;;
84048;SDS011;74136;51.684;7.862;2024-03-02T09:22:26;13.43;;;4.43;;
84048;SDS011;74136;51.684;7.862;2024-03-02T09:24:52;8.50;;;4.10;;
84048;SDS011;74136;51.684;7.862;2024-03-02T09:27:18;8.93;;;4.25;;
84048;SDS011;74136;51.684;7.862;2024-03-02T09:29:44;7.72;;;3.40;;
84048;SDS011;74136;51.684;7.862;2024-03-02T09:32:14;9.88;;;3.50;;
84048;SDS011;74136;51.684;7.862;2024-03-02T09:34:40;6.60;;;3.20;;
84048;SDS011;74136;51.684;7.862;2024-03-02T09:37:06;6.20;;;3.70;;
84048;SDS011;74136;51.684;7.862;2024-03-02T09:39:33;8.05;;;3.67;;
84048;SDS011;74136;51.684;7.862;2024-03-02T09:42:00;8.23;;;3.55;;
84048;SDS011;74136;51.684;7.862;2024-03-02T09:44:27;8.40;;;3.08;;
84048;SDS011;74136;51.684;7.862;2024-03-02T09:46:53;6.47;;;3.60;;
84048;SDS011;74136;51.684;7.862;2024-03-02T09:49:19;7.55;;;3.55;;
84048;SDS011;74136;51.684;7.862;2024-03-02T09:51:48;14.48;;;4.00;;
84048;SDS011;74136;51.684;7.862;2024-03-02T09:54:15;12.30;;;4.63;;
84048;SDS011;74136;51.684;7.862;2024-03-02T09:56:42;8.38;;;3.55;;
84048;SDS011;74136;51.684;7.862;2024-03-02T09:59:08;7.80;;;3.00;;
84048;SDS011;74136;51.684;7.862;2024-03-02T10:01:34;5.57;;;2.97;;
84048;SDS011;74136;51.684;7.862;2024-03-02T10:04:01;7.45;;;3.10;;
84048;SDS011;74136;51.684;7.862;2024-03-02T10:06:30;5.88;;;3.10;;
84048;SDS011;74136;51.684;7.862;2024-03-02T10:08:56;7.88;;;2.90;;
84048;SDS011;74136;51.684;7.862;2024-03-02T10:11:28;4.47;;;2.63;;
84048;SDS011;74136;51.684;7.862;2024-03-02T10:16:37;6.60;;;2.47;;
84048;SDS011;74136;51.684;7.862;2024-03-02T10:19:20;6.22;;;2.60;;
84048;SDS011;74136;51.684;7.862;2024-03-02T10:21:50;3.85;;;2.15;;
84048;SDS011;74136;51.684;7.862;2024-03-02T10:24:21;3.25;;;1.80;;
84048;SDS011;74136;51.684;7.862;2024-03-02T10:26:48;4.28;;;2.03;;
84048;SDS011;74136;51.684;7.862;2024-03-02T10:29:15;4.80;;;2.17;;
84048;SDS011;74136;51.684;7.862;2024-03-02T10:31:43;7.32;;;1.80;;
84048;SDS011;74136;51.684;7.862;2024-03-02T10:34:14;5.68;;;2.10;;
84048;SDS011;74136;51.684;7.862;2024-03-02T10:36:42;4.35;;;2.05;;
84048;SDS011;74136;51.684;7.862;2024-03-02T10:39:10;4.72;;;1.95;;
84048;SDS011;74136;51.684;7.862;2024-03-02T10:41:39;3.38;;;1.58;;
84048;SDS011;74136;51.684;7.862;2024-03-02T10:44:06;5.25;;;2.22;;
84048;SDS011;74136;51.684;7.862;2024-03-02T10:46:35;5.88;;;1.70;;
84048;SDS011;74136;51.684;7.862;2024-03-02T10:49:03;5.60;;;2.10;;
84048;SDS011;74136;51.684;7.862;2024-03-02T10:51:31;4.85;;;2.10;;
84048;SDS011;74136;51.684;7.862;2024-03-02T10:54:00;5.70;;;1.52;;
84048;SDS011;74136;51.684;7.862;2024-03-02T10:56:28;6.03;;;2.13;;
84048;SDS011;74136;51.684;7.862;2024-03-02T10:59:03;4.75;;;1.98;;
84048;SDS011;74136;51.684;7.862;2024-03-02T11:01:36;4.50;;;1.58;;
84048;SDS011;74136;51.684;7.862;2024-03-02T11:04:05;3.50;;;1.90;;
84048;SDS011;74136;51.684;7.862;2024-03-02T11:06:34;4.30;;;1.60;;
84048;SDS011;74136;51.684;7.862;2024-03-02T11:09:06;4.20;;;1.70;;
84048;SDS011;74136;51.684;7.862;2024-03-02T11:11:36;6.55;;;1.88;;
84048;SDS011;74136;51.684;7.862;2024-03-02T11:14:06;3.92;;;2.17;;
84048;SDS011;74136;51.684;7.862;2024-03-02T11:16:37;2.83;;;1.63;;
84048;SDS011;74136;51.684;7.862;2024-03-02T11:19:05;6.93;;;1.80;;
84048;SDS011;74136;51.684;7.862;2024-03-02T11:21:36;4.18;;;1.70;;
84048;SDS011;74136;51.684;7.862;2024-03-02T11:26:47;4.38;;;2.05;;
84048;SDS011;74136;51.684;7.862;2024-03-02T11:32:02;7.28;;;2.80;;
84048;SDS011;74136;51.684;7.862;2024-03-02T11:34:35;3.80;;;1.60;;
84048;SDS011;74136;51.684;7.862;2024-03-02T11:37:05;4.07;;;1.67;;
84048;SDS011;74136;51.684;7.862;2024-03-02T11:39:31;5.18;;;1.80;;
84048;SDS011;74136;51.684;7.862;2024-03-02T11:41:58;3.42;;;1.50;;
84048;SDS011;74136;51.684;7.862;2024-03-02T11:44:25;4.13;;;1.77;;
84048;SDS011;74136;51.684;7.862;2024-03-02T11:46:58;4.72;;;1.98;;
84048;SDS011;74136;51.684;7.862;2024-03-02T11:52:32;4.18;;;2.10;;
84048;SDS011;74136;51.684;7.862;2024-03-02T11:54:59;4.50;;;1.80;;
84048;SDS011;74136;51.684;7.862;2024-03-02T11:57:29;2.70;;;1.30;;
84048;SDS011;74136;51.684;7.862;2024-03-02T12:02:25;2.50;;;1.50;;
84048;SDS011;74136;51.684;7.862;2024-03-02T12:04:51;7.80;;;2.00;;
84048;SDS011;74136;51.684;7.862;2024-03-02T12:07:18;4.03;;;1.45;;
84048;SDS011;74136;51.684;7.862;2024-03-02T12:09:47;4.15;;;1.60;;
84048;SDS011;74136;51.684;7.862;2024-03-02T12:12:13;2.75;;;1.35;;
84048;SDS011;74136;51.684;7.862;2024-03-02T12:14:49;4.40;;;1.30;;
84048;SDS011;74136;51.684;7.862;2024-03-02T12:17:16;3.60;;;1.20;;
84048;SDS011;74136;51.684;7.862;2024-03-02T12:19:43;4.75;;;1.67;;
84048;SDS011;74136;51.684;7.862;2024-03-02T12:22:10;3.20;;;1.20;;
84048;SDS011;74136;51.684;7.862;2024-03-02T12:24:36;3.33;;;1.65;;
84048;SDS011;74136;51.684;7.862;2024-03-02T12:27:03;3.33;;;1.10;;
84048;SDS011;74136;51.684;7.862;2024-03-02T12:29:31;2.42;;;1.00;;
84048;SDS011;74136;51.684;7.862;2024-03-02T12:31:58;3.55;;;1.40;;
84048;SDS011;74136;51.684;7.862;2024-03-02T12:34:25;2.85;;;1.10;;
84048;SDS011;74136;51.684;7.862;2024-03-02T12:36:52;2.50;;;1.20;;
84048;SDS011;74136;51.684;7.862;2024-03-02T12:39:19;2.55;;;1.00;;
84048;SDS011;74136;51.684;7.862;2024-03-02T12:41:46;2.30;;;1.20;;
84048;SDS011;74136;51.684;7.862;2024-03-02T12:44:12;2.45;;;1.45;;
84048;SDS011;74136;51.684;7.862;2024-03-02T12:46:38;1.77;;;0.90;;
84048;SDS011;74136;51.684;7.862;2024-03-02T12:49:07;3.78;;;0.90;;
84048;SDS011;74136;51.684;7.862;2024-03-02T12:51:36;4.00;;;1.30;;
84048;SDS011;74136;51.684;7.862;2024-03-02T12:54:03;2.63;;;1.33;;
84048;SDS011;74136;51.684;7.862;2024-03-02T12:56:31;3.17;;;1.48;;
84048;SDS011;74136;51.684;7.862;2024-03-02T12:58:58;4.07;;;1.90;;
84048;SDS011;74136;51.684;7.862;2024-03-02T13:01:25;5.13;;;1.70;;
84048;SDS011;74136;51.684;7.862;2024-03-02T13:03:55;3.75;;;1.70;;
84048;SDS011;74136;51.684;7.862;2024-03-02T13:06:23;4.05;;;1.63;;
84048;SDS011;74136;51.684;7.862;2024-03-02T13:08:50;3.20;;;1.70;;
84048;SDS011;74136;51.684;7.862;2024-03-02T13:11:16;3.63;;;1.85;;
84048;SDS011;74136;51.684;7.862;2024-03-02T13:13:42;3.25;;;1.83;;
84048;SDS011;74136;51.684;7.862;2024-03-02T13:16:09;7.88;;;3.05;;
84048;SDS011;74136;51.684;7.862;2024-03-02T13:18:36;6.75;;;2.25;;
84048;SDS011;74136;51.684;7.862;2024-03-02T13:23:30;3.70;;;1.75;;
84048;SDS011;74136;51.684;7.862;2024-03-02T13:25:57;3.25;;;1.90;;
84048;SDS011;74136;51.684;7.862;2024-03-02T13:28:32;3.50;;;1.88;;
84048;SDS011;74136;51.684;7.862;2024-03-02T13:30:59;4.43;;;2.03;;
84048;SDS011;74136;51.684;7.862;2024-03-02T13:33:25;3.92;;;2.08;;
84048;SDS011;74136;51.684;7.862;2024-03-02T13:35:51;4.63;;;1.80;;
84048;SDS011;74136;51.684;7.862;2024-03-02T13:38:21;4.72;;;1.48;;
84048;SDS011;74136;51.684;7.862;2024-03-02T13:40:48;3.28;;;1.58;;
84048;SDS011;74136;51.684;7.862;2024-03-02T13:43:17;2.17;;;1.20;;
84048;SDS011;74136;51.684;7.862;2024-03-02T13:45:44;3.88;;;1.40;;
84048;SDS011;74136;51.684;7.862;2024-03-02T13:48:11;2.88;;;1.20;;
84048;SDS011;74136;51.684;7.862;2024-03-02T13:50:37;4.72;;;1.85;;
84048;SDS011;74136;51.684;7.862;2024-03-02T13:53:03;3.92;;;1.73;;
84048;SDS011;74136;51.684;7.862;2024-03-02T13:55:30;3.92;;;1.95;;
84048;SDS011;74136;51.684;7.862;2024-03-02T13:57:57;9.73;;;3.38;;
84048;SDS011;74136;51.684;7.862;2024-03-02T14:00:24;5.03;;;2.47;;
84048;SDS011;74136;51.684;7.862;2024-03-02T14:02:50;5.15;;;1.63;;
84048;SDS011;74136;51.684;7.862;2024-03-02T14:05:16;3.83;;;1.40;;
84048;SDS011;74136;51.684;7.862;2024-03-02T14:07:43;3.28;;;1.50;;
84048;SDS011;74136;51.684;7.862;2024-03-02T14:10:12;2.42;;;1.40;;
84048;SDS011;74136;51.684;7.862;2024-03-02T14:12:38;2.63;;;1.42;;
84048;SDS011;74136;51.684;7.862;2024-03-02T14:15:04;3.55;;;1.40;;
84048;SDS011;74136;51.684;7.862;2024-03-02T14:17:31;3.25;;;1.73;;
84048;SDS011;74136;51.684;7.862;2024-03-02T14:19:57;3.67;;;1.80;;
84048;SDS011;74136;51.684;7.862;2024-03-02T14:22:25;3.42;;;1.60;;
84048;SDS011;74136;51.684;7.862;2024-03-02T14:24:51;5.35;;;1.92;;
84048;SDS011;74136;51.684;7.862;2024-03-02T14:27:17;4.53;;;1.90;;
84048;SDS011;74136;51.684;7.862;2024-03-02T14:29:44;3.67;;;1.70;;
84048;SDS011;74136;51.684;7.862;2024-03-02T14:32:11;4.10;;;1.80;;
84048;SDS011;74136;51.684;7.862;2024-03-02T14:34:37;5.22;;;1.70;;
84048;SDS011;74136;51.684;7.862;2024-03-02T14:37:04;5.05;;;2.17;;
84048;SDS011;74136;51.684;7.862;2024-03-02T14:39:30;3.97;;;2.25;;
84048;SDS011;74136;51.684;7.862;2024-03-02T14:42:00;4.30;;;2.08;;
84048;SDS011;74136;51.684;7.862;2024-03-02T14:44:27;3.97;;;2.08;;
84048;SDS011;74136;51.684;7.862;2024-03-02T14:46:53;4.88;;;2.22;;
84048;SDS011;74136;51.684;7.862;2024-03-02T14:49:19;4.72;;;2.47;;
84048;SDS011;74136;51.684;7.862;2024-03-02T14:51:46;9.02;;;3.05;;
84048;SDS011;74136;51.684;7.862;2024-03-02T14:54:12;4.45;;;2.30;;
84048;SDS011;74136;51.684;7.862;2024-03-02T14:56:38;3.80;;;2.20;;
84048;SDS011;74136;51.684;7.862;2024-03-02T14:59:04;4.45;;;2.30;;
84048;SDS011;74136;51.684;7.862;2024-03-02T15:01:31;4.30;;;1.90;;
84048;SDS011;74136;51.684;7.862;2024-03-02T15:03:57;7.18;;;2.17;;
84048;SDS011;74136;51.684;7.862;2024-03-02T15:06:23;2.83;;;1.45;;
84048;SDS011;74136;51.684;7.862;2024-03-02T15:08:50;3.08;;;1.45;;
84048;SDS011;74136;51.684;7.862;2024-03-02T15:11:16;2.95;;;1.67;;
84048;SDS011;74136;51.684;7.862;2024-03-02T15:13:42;3.75;;;1.85;;
84048;SDS011;74136;51.684;7.862;2024-03-02T15:16:09;3.67;;;2.03;;